createdAt,value
2023-02-25T00:01:21.757Z,5.96
2023-02-25T00:03:48.424Z,5.89
2023-02-25T00:06:15.164Z,5.86
2023-02-25T00:08:46.132Z,5.77
2023-02-25T00:11:14.661Z,5.89
2023-02-25T00:13:42.284Z,5.78
2023-02-25T00:16:10.315Z,5.70
2023-02-25T00:18:37.044Z,5.79
2023-02-25T00:21:09.491Z,5.85
2023-02-25T00:23:36.404Z,5.86
2023-02-25T00:26:07.016Z,5.72
2023-02-25T00:28:34.848Z,5.27
2023-02-25T00:31:09.509Z,5.04
2023-02-25T00:33:37.381Z,4.74
2023-02-25T00:36:08.580Z,4.57
2023-02-25T00:38:36.348Z,4.53
2023-02-25T00:41:15.070Z,4.32
2023-02-25T00:43:44.650Z,4.20
2023-02-25T00:46:11.762Z,4.15
2023-02-25T00:48:39.265Z,3.88
2023-02-25T00:51:11.588Z,3.77
2023-02-25T00:53:38.661Z,3.75
2023-02-25T00:56:07.751Z,3.77
2023-02-25T00:58:38.686Z,3.85
2023-02-25T01:01:06.803Z,3.87
2023-02-25T01:03:33.431Z,3.72
2023-02-25T01:06:00.265Z,3.55
2023-02-25T01:08:27.125Z,3.64
2023-02-25T01:10:53.717Z,3.72
2023-02-25T01:13:20.412Z,3.73
2023-02-25T01:15:47.048Z,3.76
2023-02-25T01:18:13.645Z,3.59
2023-02-25T01:20:40.479Z,3.43
2023-02-25T01:23:07.386Z,3.09
2023-02-25T01:25:34.025Z,3.05
2023-02-25T01:28:00.759Z,3.11
2023-02-25T01:30:27.397Z,3.06
2023-02-25T01:32:54.113Z,3.05
2023-02-25T01:35:20.774Z,2.94
2023-02-25T01:37:49.785Z,2.96
2023-02-25T01:40:17.917Z,2.82
2023-02-25T01:42:47.699Z,2.73
2023-02-25T01:45:32.707Z,2.50
2023-02-25T01:48:09.444Z,2.47
2023-02-25T01:50:43.642Z,2.31
2023-02-25T01:53:10.425Z,2.28
2023-02-25T01:55:40.129Z,2.17
2023-02-25T01:58:09.308Z,2.13
2023-02-25T02:00:36.705Z,2.14
2023-02-25T02:03:04.669Z,2.19
2023-02-25T02:05:46.607Z,2.22
2023-02-25T02:08:13.630Z,2.24
2023-02-25T02:10:40.240Z,2.31
2023-02-25T02:13:06.970Z,2.31
2023-02-25T02:15:41.094Z,2.24
2023-02-25T02:18:09.223Z,2.28
2023-02-25T02:21:18.014Z,2.34
2023-02-25T02:24:10.516Z,2.31
2023-02-25T02:26:57.816Z,2.36
2023-02-25T02:29:48.261Z,2.25
2023-02-25T02:32:57.538Z,2.28
2023-02-25T02:35:36.711Z,2.26
2023-02-25T02:38:26.666Z,2.31
2023-02-25T02:41:27.770Z,2.28
2023-02-25T02:44:02.239Z,2.09
2023-02-25T02:46:38.343Z,2.08
2023-02-25T02:49:49.518Z,2.20
2023-02-25T02:52:24.231Z,2.33
2023-02-25T02:54:56.985Z,2.29
2023-02-25T02:57:27.969Z,2.38
2023-02-25T03:00:12.623Z,2.46
2023-02-25T03:02:41.086Z,2.40
2023-02-25T03:05:12.386Z,2.42
2023-02-25T03:07:45.275Z,2.45
2023-02-25T03:10:18.123Z,2.49
2023-02-25T03:12:44.741Z,2.54
2023-02-25T03:15:11.568Z,2.53
2023-02-25T03:18:06.908Z,2.61
2023-02-25T03:20:42.146Z,2.62
2023-02-25T03:23:14.289Z,2.63
2023-02-25T03:25:59.567Z,2.72
2023-02-25T03:28:32.708Z,2.74
2023-02-25T03:31:07.761Z,2.85
2023-02-25T03:34:07.816Z,2.77
2023-02-25T03:36:40.042Z,2.82
2023-02-25T03:39:12.306Z,2.75
2023-02-25T03:41:44.670Z,2.68
2023-02-25T03:44:20.860Z,2.78
2023-02-25T03:46:48.380Z,2.74
2023-02-25T03:49:38.811Z,2.61
2023-02-25T03:52:13.768Z,2.54
2023-02-25T03:54:40.641Z,2.63
2023-02-25T03:57:07.253Z,2.55
2023-02-25T03:59:33.882Z,2.64
2023-02-25T04:02:01.339Z,2.57
2023-02-25T04:04:28.168Z,2.59
2023-02-25T04:06:54.865Z,2.61
2023-02-25T04:09:21.459Z,2.56
2023-02-25T04:11:49.147Z,2.59
2023-02-25T04:14:16.068Z,2.71
2023-02-25T04:16:42.874Z,2.64
2023-02-25T04:19:09.436Z,2.75
2023-02-25T04:21:37.277Z,2.76
2023-02-25T04:24:06.689Z,2.65
2023-02-25T04:26:34.649Z,2.54
2023-02-25T04:29:01.768Z,2.56
2023-02-25T04:31:28.535Z,2.55
2023-02-25T04:33:57.961Z,2.49
2023-02-25T04:36:35.991Z,2.58
2023-02-25T04:39:05.063Z,2.50
2023-02-25T04:41:33.712Z,2.61
2023-02-25T04:44:00.632Z,2.58
2023-02-25T04:46:27.370Z,2.48
2023-02-25T04:48:54.088Z,2.48
2023-02-25T04:51:21.260Z,2.50
2023-02-25T04:53:48.497Z,2.50
2023-02-25T04:56:15.948Z,2.42
2023-02-25T04:58:42.994Z,2.52
2023-02-25T05:01:10.724Z,2.52
2023-02-25T05:03:38.258Z,2.53
2023-02-25T05:06:06.060Z,2.64
2023-02-25T05:08:33.810Z,2.55
2023-02-25T05:11:01.003Z,2.53
2023-02-25T05:13:28.638Z,2.57
2023-02-25T05:16:11.349Z,2.56
2023-02-25T05:18:38.765Z,2.60
2023-02-25T05:21:09.926Z,2.65
2023-02-25T05:23:36.450Z,2.77
2023-02-25T05:26:03.224Z,2.64
2023-02-25T05:28:29.829Z,2.70
2023-02-25T05:30:56.854Z,2.73
2023-02-25T05:33:23.929Z,2.60
2023-02-25T05:35:51.004Z,2.71
2023-02-25T05:38:17.589Z,2.65
2023-02-25T05:40:44.224Z,2.64
2023-02-25T05:43:10.834Z,2.71
2023-02-25T05:45:37.430Z,2.57
2023-02-25T05:48:04.134Z,2.62
2023-02-25T05:50:34.467Z,2.42
2023-02-25T05:53:01.090Z,2.42
2023-02-25T05:55:27.709Z,2.27
2023-02-25T05:57:54.309Z,2.37
2023-02-25T06:00:21.533Z,2.38
2023-02-25T06:02:48.313Z,2.37
2023-02-25T06:05:14.922Z,2.47
2023-02-25T06:07:41.537Z,2.47
2023-02-25T06:10:08.972Z,2.46
2023-02-25T06:12:38.106Z,2.40
2023-02-25T06:15:05.098Z,2.35
2023-02-25T06:17:31.694Z,2.26
2023-02-25T06:19:58.483Z,2.25
2023-02-25T06:22:25.095Z,2.32
2023-02-25T06:24:51.676Z,2.22
2023-02-25T06:27:18.748Z,2.26
2023-02-25T06:29:47.765Z,2.41
2023-02-25T06:32:15.271Z,2.35
2023-02-25T06:34:41.920Z,2.31
2023-02-25T06:37:08.885Z,2.33
2023-02-25T06:39:35.493Z,2.48
2023-02-25T06:42:02.183Z,2.45
2023-02-25T06:44:29.538Z,1.66
2023-02-25T06:46:56.182Z,1.03
2023-02-25T06:49:23.641Z,0.75
2023-02-25T06:51:50.441Z,0.69
2023-02-25T06:54:17.761Z,0.63
2023-02-25T06:56:44.856Z,0.60
2023-02-25T06:59:11.459Z,0.61
2023-02-25T07:01:38.188Z,0.67
2023-02-25T07:04:05.127Z,0.71
2023-02-25T07:06:31.806Z,0.77
2023-02-25T07:08:58.457Z,0.84
2023-02-25T07:11:29.639Z,0.88
2023-02-25T07:13:56.820Z,0.87
2023-02-25T07:16:23.902Z,1.03
2023-02-25T07:18:50.982Z,1.19
2023-02-25T07:21:17.996Z,1.27
2023-02-25T07:23:44.953Z,1.25
2023-02-25T07:26:13.215Z,1.46
2023-02-25T07:28:40.304Z,1.55
2023-02-25T07:31:13.605Z,1.47
2023-02-25T07:33:41.807Z,1.57
2023-02-25T07:36:09.103Z,1.61
2023-02-25T07:38:35.895Z,1.56
2023-02-25T07:41:07.472Z,1.44
2023-02-25T07:43:34.109Z,1.53
2023-02-25T07:46:01.209Z,1.53
2023-02-25T07:48:28.186Z,1.61
2023-02-25T07:50:55.476Z,1.77
2023-02-25T07:53:22.699Z,1.95
2023-02-25T07:55:50.364Z,2.00
2023-02-25T07:58:17.075Z,1.97
2023-02-25T08:00:45.829Z,1.87
2023-02-25T08:03:12.532Z,2.02
2023-02-25T08:05:39.210Z,2.12
2023-02-25T08:08:06.148Z,2.28
2023-02-25T08:10:32.876Z,2.40
2023-02-25T08:12:59.508Z,2.50
2023-02-25T08:15:26.266Z,2.56
2023-02-25T08:17:55.397Z,2.67
2023-02-25T08:20:24.263Z,2.69
2023-02-25T08:22:51.156Z,2.73
2023-02-25T08:25:17.973Z,2.78
2023-02-25T08:27:44.691Z,2.98
2023-02-25T08:30:12.453Z,3.07
2023-02-25T08:32:39.587Z,3.14
2023-02-25T08:35:06.615Z,3.28
2023-02-25T08:37:33.593Z,3.36
2023-02-25T08:40:00.271Z,3.42
2023-02-25T08:42:27.380Z,3.57
2023-02-25T08:44:53.982Z,3.55
2023-02-25T08:47:20.609Z,3.48
2023-02-25T08:49:47.609Z,3.38
2023-02-25T08:52:14.897Z,3.45
2023-02-25T08:54:41.542Z,3.53
2023-02-25T08:57:08.171Z,3.31
2023-02-25T08:59:35.982Z,3.17
2023-02-25T09:02:07.445Z,3.21
2023-02-25T09:04:34.574Z,3.26
2023-02-25T09:07:02.194Z,3.45
2023-02-25T09:09:28.971Z,3.47
2023-02-25T09:11:55.862Z,3.36
2023-02-25T09:14:22.888Z,3.24
2023-02-25T09:16:49.594Z,3.37
2023-02-25T09:19:17.982Z,3.44
2023-02-25T09:21:48.378Z,3.46
2023-02-25T09:24:15.428Z,3.49
2023-02-25T09:26:42.058Z,3.57
2023-02-25T09:29:08.988Z,3.61
2023-02-25T09:31:37.527Z,3.56
2023-02-25T09:34:07.470Z,3.43
2023-02-25T09:36:34.566Z,3.42
2023-02-25T09:39:01.552Z,3.50
2023-02-25T09:42:07.347Z,3.55
2023-02-25T09:44:48.144Z,3.57
2023-02-25T09:47:23.288Z,3.66
2023-02-25T09:50:00.481Z,3.51
2023-02-25T09:52:42.967Z,3.67
2023-02-25T09:55:23.681Z,3.79
2023-02-25T09:58:16.574Z,3.98
2023-02-25T10:00:48.324Z,3.96
2023-02-25T10:03:24.220Z,3.92
2023-02-25T10:06:11.624Z,3.89
2023-02-25T10:08:54.934Z,3.84
2023-02-25T10:11:31.968Z,3.88
2023-02-25T10:14:25.332Z,4.00
2023-02-25T10:17:25.961Z,4.15
2023-02-25T10:20:27.471Z,4.22
2023-02-25T10:23:24.676Z,4.32
2023-02-25T10:25:59.746Z,4.43
2023-02-25T10:28:28.933Z,4.51
2023-02-25T10:31:05.574Z,4.64
2023-02-25T10:33:36.967Z,4.75
2023-02-25T10:36:14.980Z,4.55
2023-02-25T10:38:59.254Z,4.66
2023-02-25T10:41:27.014Z,4.66
2023-02-25T10:43:55.534Z,4.69
2023-02-25T10:46:41.790Z,4.70
2023-02-25T10:49:21.375Z,4.80
2023-02-25T10:52:14.112Z,4.97
2023-02-25T10:54:49.082Z,5.03
2023-02-25T10:57:26.322Z,5.15
2023-02-25T11:00:13.292Z,5.30
2023-02-25T11:02:43.996Z,5.68
2023-02-25T11:05:32.230Z,5.68
2023-02-25T11:07:58.867Z,5.81
2023-02-25T11:10:25.532Z,5.97
2023-02-25T11:12:54.618Z,5.81
2023-02-25T11:15:43.197Z,5.73
2023-02-25T11:18:29.526Z,5.60
2023-02-25T11:21:01.921Z,5.81
2023-02-25T11:23:49.302Z,5.77
2023-02-25T11:26:27.227Z,5.81
2023-02-25T11:28:55.402Z,5.74
2023-02-25T11:31:25.034Z,5.79
2023-02-25T11:34:01.297Z,5.92
2023-02-25T11:36:36.824Z,5.80
2023-02-25T11:39:24.903Z,5.67
2023-02-25T11:41:57.564Z,5.64
2023-02-25T11:44:30.829Z,5.71
2023-02-25T11:47:03.799Z,5.53
2023-02-25T11:49:41.205Z,5.73
2023-02-25T11:52:34.494Z,5.80
2023-02-25T11:55:19.681Z,5.79
2023-02-25T11:58:23.811Z,5.85
2023-02-25T12:01:03.175Z,5.72
2023-02-25T12:04:04.841Z,5.64
2023-02-25T12:07:24.149Z,5.76
2023-02-25T12:10:44.558Z,5.71
2023-02-25T12:13:17.133Z,5.68
2023-02-25T12:16:07.824Z,5.67
2023-02-25T12:19:07.999Z,5.56
2023-02-25T12:22:13.157Z,5.76
2023-02-25T12:46:26.601Z,6.82
2023-02-25T12:52:18.362Z,6.57
2023-02-25T12:55:09.621Z,6.65
2023-02-25T12:57:49.838Z,6.94
2023-02-25T13:01:05.917Z,6.83
2023-02-25T13:04:37.166Z,6.71
2023-02-25T13:07:26.616Z,6.37
2023-02-25T13:10:32.086Z,6.18
2023-02-25T13:13:43.963Z,6.10
2023-02-25T13:16:55.018Z,5.86
2023-02-25T13:20:03.496Z,5.77
2023-02-25T13:23:07.553Z,5.62
2023-02-25T13:26:24.813Z,5.66
2023-02-25T13:41:59.877Z,4.96
2023-02-25T13:48:27.124Z,4.97
2023-02-25T13:51:16.261Z,5.01
2023-02-25T13:54:14.501Z,4.89
2023-02-25T13:56:59.004Z,4.89
2023-02-25T13:59:57.991Z,4.89
2023-02-25T14:02:59.921Z,4.99
2023-02-25T14:06:14.856Z,5.18
2023-02-25T14:09:15.038Z,5.27
2023-02-25T14:12:12.012Z,5.32
2023-02-25T14:15:17.992Z,5.11
2023-02-25T14:18:15.579Z,4.89
2023-02-25T14:21:31.678Z,4.67
2023-02-25T14:24:32.043Z,4.56
2023-02-25T14:27:20.815Z,4.64
2023-02-25T14:30:27.835Z,4.58
2023-02-25T14:33:12.840Z,4.68
2023-02-25T14:36:16.535Z,4.61
2023-02-25T14:39:21.842Z,4.76
2023-02-25T14:42:39.532Z,4.61
2023-02-25T14:45:21.239Z,4.48
2023-02-25T14:48:06.059Z,4.58
2023-02-25T14:50:58.015Z,4.65
2023-02-25T14:54:06.677Z,4.72
2023-02-25T14:56:48.920Z,4.70
2023-02-25T15:00:05.214Z,4.62
2023-02-25T15:03:02.092Z,4.57
2023-02-25T15:05:55.522Z,4.57
2023-02-25T15:09:14.613Z,4.56
2023-02-25T15:12:05.927Z,4.62
2023-02-25T15:49:33.452Z,3.76
2023-02-25T15:52:04.317Z,3.74
2023-02-25T15:54:46.602Z,3.72
2023-02-25T15:57:34.637Z,3.71
2023-02-25T16:00:01.473Z,3.65
2023-02-25T16:02:52.928Z,3.58
2023-02-25T16:05:24.742Z,3.56
2023-02-25T16:08:03.226Z,3.46
2023-02-25T16:10:38.387Z,3.41
2023-02-25T16:13:05.077Z,3.44
2023-02-25T16:15:42.407Z,3.40
2023-02-25T16:18:45.432Z,3.32
2023-02-25T16:21:23.631Z,3.36
2023-02-25T16:23:51.070Z,3.31
2023-02-25T16:27:01.557Z,3.24
2023-02-25T16:30:10.056Z,3.24
2023-02-25T16:33:20.467Z,3.21
2023-02-25T16:36:11.164Z,3.09
2023-02-25T16:38:53.796Z,3.01
2023-02-25T16:41:23.994Z,3.07
2023-02-25T16:43:54.867Z,3.10
2023-02-25T16:46:28.080Z,2.98
2023-02-25T16:49:02.935Z,2.98
2023-02-25T16:51:34.466Z,2.93
2023-02-25T16:54:14.273Z,2.96
2023-02-25T16:56:43.097Z,2.96
2023-02-25T16:59:21.843Z,3.01
2023-02-25T17:01:59.490Z,2.94
2023-02-25T17:04:33.116Z,2.95
2023-02-25T17:07:22.303Z,2.94
2023-02-25T17:09:52.158Z,2.84
2023-02-25T17:12:30.355Z,2.89
2023-02-25T17:14:59.768Z,2.76
2023-02-25T17:17:33.159Z,2.85
2023-02-25T17:20:04.585Z,2.75
2023-02-25T17:22:32.782Z,2.82
2023-02-25T17:25:00.195Z,2.73
2023-02-25T17:27:28.522Z,2.75
2023-02-25T17:29:55.431Z,2.79
2023-02-25T17:32:28.289Z,2.74
2023-02-25T17:34:59.907Z,2.72
2023-02-25T17:37:29.390Z,2.74
2023-02-25T17:39:56.875Z,2.70
2023-02-25T17:42:38.962Z,2.80
2023-02-25T17:45:27.058Z,2.79
2023-02-25T17:47:53.796Z,2.72
2023-02-25T17:50:29.748Z,2.68
2023-02-25T17:52:58.368Z,2.72
2023-02-25T17:55:33.532Z,2.69
2023-02-25T17:58:01.932Z,2.58
2023-02-25T18:00:37.885Z,2.62
2023-02-25T18:03:20.044Z,2.47
2023-02-25T18:05:59.160Z,2.44
2023-02-25T18:08:30.179Z,2.49
2023-02-25T18:11:24.076Z,2.47
2023-02-25T18:13:51.081Z,2.01
2023-02-25T18:16:44.800Z,1.96
2023-02-25T18:19:38.628Z,2.17
2023-02-25T18:22:07.470Z,1.84
2023-02-25T18:24:37.657Z,1.77
2023-02-25T18:27:27.534Z,1.41
2023-02-25T18:29:57.854Z,1.18
2023-02-25T18:32:24.501Z,1.18
2023-02-25T18:34:51.115Z,1.19
2023-02-25T18:37:18.794Z,1.35
2023-02-25T18:39:48.800Z,1.55
2023-02-25T18:42:16.786Z,1.29
2023-02-25T18:44:44.950Z,1.18
2023-02-25T18:47:11.568Z,1.17
2023-02-25T18:49:38.215Z,0.94
2023-02-25T18:52:10.458Z,0.90
2023-02-25T18:54:37.093Z,1.05
2023-02-25T18:57:04.234Z,0.94
2023-02-25T18:59:30.839Z,1.05
2023-02-25T19:01:57.472Z,0.90
2023-02-25T19:04:24.282Z,0.80
2023-02-25T19:06:50.868Z,0.79
2023-02-25T19:09:17.517Z,0.81
2023-02-25T19:11:44.173Z,0.84
2023-02-25T19:14:17.621Z,0.97
2023-02-25T19:16:44.252Z,1.09
2023-02-25T19:19:10.893Z,1.04
2023-02-25T19:21:37.512Z,1.15
2023-02-25T19:24:04.576Z,1.10
2023-02-25T19:26:31.214Z,1.26
2023-02-25T19:28:57.829Z,1.34
2023-02-25T19:31:24.479Z,1.34
2023-02-25T19:33:51.116Z,1.56
2023-02-25T19:36:17.739Z,1.42
2023-02-25T19:38:44.500Z,1.53
2023-02-25T19:41:13.806Z,1.44
2023-02-25T19:43:40.476Z,1.46
2023-02-25T19:46:08.667Z,1.46
2023-02-25T19:48:35.376Z,1.27
2023-02-25T19:51:06.610Z,1.09
2023-02-25T19:53:33.872Z,1.16
2023-02-25T19:56:02.977Z,1.25
2023-02-25T19:58:31.899Z,1.22
2023-02-25T20:01:06.991Z,1.04
2023-02-25T20:03:33.964Z,1.09
2023-02-25T20:06:22.236Z,1.11
2023-02-25T20:08:53.711Z,1.17
2023-02-25T20:11:20.360Z,1.11
2023-02-25T20:13:47.156Z,1.18
2023-02-25T20:16:13.852Z,1.15
2023-02-25T20:18:43.437Z,1.16
2023-02-25T20:21:10.050Z,1.14
2023-02-25T20:23:38.326Z,1.03
2023-02-25T20:26:09.562Z,0.96
2023-02-25T20:28:36.740Z,0.97
2023-02-25T20:31:09.742Z,0.89
2023-02-25T20:33:37.492Z,0.89
2023-02-25T20:36:17.985Z,0.87
2023-02-25T20:39:15.833Z,0.86
2023-02-25T20:41:44.799Z,0.69
2023-02-25T20:44:12.704Z,0.69
2023-02-25T20:46:40.929Z,0.54
2023-02-25T20:49:12.036Z,0.62
2023-02-25T20:51:39.113Z,0.55
2023-02-25T20:54:06.244Z,0.45
2023-02-25T20:56:34.593Z,0.38
2023-02-25T20:59:01.601Z,0.30
2023-02-25T21:01:28.560Z,0.40
2023-02-25T21:03:55.751Z,0.47
2023-02-25T21:06:24.674Z,0.19
2023-02-25T21:08:52.171Z,0.24
2023-02-25T21:11:19.938Z,0.31
2023-02-25T21:13:47.576Z,0.35
2023-02-25T21:16:15.937Z,0.25
2023-02-25T21:18:44.219Z,0.19
2023-02-25T21:21:13.342Z,0.20
2023-02-25T21:23:41.079Z,0.27
2023-02-25T21:26:09.279Z,0.24
2023-02-25T21:28:36.217Z,0.00
2023-02-25T21:31:08.902Z,0.19
2023-02-25T21:33:37.198Z,0.28
2023-02-25T21:36:04.866Z,0.33
2023-02-25T21:38:31.713Z,0.36
2023-02-25T21:41:06.245Z,0.27
2023-02-25T21:43:33.213Z,0.28
2023-02-25T21:46:01.882Z,0.28
2023-02-25T21:48:30.760Z,0.29
2023-02-25T21:50:58.018Z,0.35
2023-02-25T21:53:27.407Z,0.37
2023-02-25T21:55:55.019Z,0.51
2023-02-25T21:58:22.221Z,0.52
2023-02-25T22:00:49.016Z,0.57
2023-02-25T22:03:15.765Z,0.48
2023-02-25T22:05:46.573Z,0.48
2023-02-25T22:08:14.110Z,0.44
2023-02-25T22:10:40.898Z,0.43
2023-02-25T22:13:08.467Z,0.30
2023-02-25T22:15:35.559Z,0.19
2023-02-25T22:18:02.227Z,0.29
2023-02-25T22:20:29.047Z,0.14
2023-02-25T22:22:57.993Z,0.09
2023-02-25T22:25:24.866Z,0.13
2023-02-25T22:27:52.184Z,0.06
2023-02-25T22:30:21.520Z,0.12
2023-02-25T22:32:48.334Z,0.05
2023-02-25T22:35:15.455Z,-0.03
2023-02-25T22:37:42.124Z,0.07
2023-02-25T22:40:09.604Z,-0.12
2023-02-25T22:42:36.245Z,-0.17
2023-02-25T22:45:03.020Z,-0.09
2023-02-25T22:47:29.663Z,0.13
2023-02-25T22:49:56.327Z,0.27
2023-02-25T22:52:23.045Z,0.43
2023-02-25T22:54:49.668Z,0.53
2023-02-25T22:57:16.330Z,0.53
2023-02-25T22:59:42.981Z,0.61
2023-02-25T23:02:09.596Z,0.54
2023-02-25T23:04:36.577Z,0.69
2023-02-25T23:07:03.213Z,0.80
2023-02-25T23:09:29.843Z,0.88
2023-02-25T23:11:56.608Z,0.90
2023-02-25T23:14:24.013Z,1.00
2023-02-25T23:16:51.335Z,0.99
2023-02-25T23:19:18.655Z,0.94
2023-02-25T23:21:45.801Z,0.94
2023-02-25T23:24:18.624Z,0.90
2023-02-25T23:26:47.761Z,0.84
2023-02-25T23:29:14.497Z,0.84
2023-02-25T23:31:46.934Z,0.83
2023-02-25T23:34:24.280Z,0.77
2023-02-25T23:36:54.073Z,0.83
2023-02-25T23:39:20.711Z,0.93
2023-02-25T23:44:15.667Z,0.96
2023-02-25T23:46:43.335Z,1.00
2023-02-25T23:49:13.058Z,0.92
2023-02-25T23:51:43.562Z,0.93
2023-02-25T23:54:14.289Z,0.89
2023-02-25T23:56:41.251Z,0.87
2023-02-25T23:59:08.858Z,0.89
